Time;durP1;ratioP1;P1;durP2;ratioP2;P2;SDS_P1;SDS_P2;PMS_P1;PMS_P2;Temp;Humidity;BMP_temperature;BMP_pressure;BME280_temperature;BME280_humidity;BME280_pressure;Samples;Min_cycle;Max_cycle;Signal;HPM_P1;HPM_P2
2020/12/15 00:01:53;;;;;;;16.70;9.70;;;6.10;99.90;;;;;;5049212;28;20477;-54
2020/12/15 00:04:19;;;;;;;16.38;9.50;;;6.00;99.90;;;;;;5049555;28;20393;-54
2020/12/15 00:06:44;;;;;;;19.20;9.85;;;6.00;99.90;;;;;;5049036;28;20413;-55
2020/12/15 00:09:10;;;;;;;18.30;9.88;;;6.10;99.90;;;;;;5051090;28;20389;-53
2020/12/15 00:11:36;;;;;;;16.60;9.10;;;6.10;99.90;;;;;;5049195;28;20420;-60
2020/12/15 00:14:01;;;;;;;17.50;9.13;;;6.40;99.90;;;;;;5050046;28;20392;-54
2020/12/15 00:16:27;;;;;;;16.67;9.10;;;6.30;99.90;;;;;;5048759;28;20424;-54
2020/12/15 00:18:52;;;;;;;15.90;8.90;;;6.20;99.90;;;;;;5050315;28;20382;-54
2020/12/15 00:21:23;;;;;;;15.73;8.67;;;6.20;99.90;;;;;;5049364;28;20913;-52
2020/12/15 00:23:51;;;;;;;14.57;8.93;;;6.30;99.90;;;;;;5050045;28;20385;-52
2020/12/15 00:26:17;;;;;;;14.85;8.18;;;6.30;99.90;;;;;;5051216;28;20422;-52
2020/12/15 00:28:43;;;;;;;16.67;8.85;;;6.40;99.90;;;;;;5046390;28;20423;-52
2020/12/15 00:31:09;;;;;;;16.23;9.30;;;6.50;99.90;;;;;;5036881;28;20375;-54
2020/12/15 00:33:35;;;;;;;15.80;8.93;;;6.70;99.90;;;;;;5048437;28;20800;-52
2020/12/15 00:36:00;;;;;;;14.43;8.10;;;6.70;99.90;;;;;;5049801;28;20475;-52
2020/12/15 00:38:26;;;;;;;15.97;8.73;;;6.60;99.90;;;;;;5048262;28;20412;-52
2020/12/15 00:40:51;;;;;;;15.73;8.83;;;6.50;99.90;;;;;;5049776;28;20856;-52
2020/12/15 00:43:17;;;;;;;15.38;8.75;;;6.50;99.90;;;;;;5047829;28;20488;-52
2020/12/15 00:45:45;;;;;;;15.90;8.70;;;6.50;99.90;;;;;;5049473;28;20377;-52
2020/12/15 00:48:11;;;;;;;13.75;8.07;;;6.60;99.90;;;;;;5048343;28;20401;-52
2020/12/15 00:50:37;;;;;;;16.80;9.63;;;6.50;99.90;;;;;;5048942;28;20468;-58
2020/12/15 00:53:03;;;;;;;18.25;9.10;;;6.60;99.90;;;;;;5049021;28;20464;-52
2020/12/15 00:55:28;;;;;;;18.03;9.30;;;6.60;99.90;;;;;;5048481;28;20412;-52
2020/12/15 00:57:54;;;;;;;17.10;9.60;;;6.50;99.90;;;;;;5047849;28;20492;-53
2020/12/15 01:00:20;;;;;;;17.00;9.13;;;6.50;99.90;;;;;;5048172;28;20756;-52
2020/12/15 01:02:45;;;;;;;17.77;9.87;;;6.50;99.90;;;;;;5049240;28;20384;-52
2020/12/15 01:05:11;;;;;;;17.52;10.23;;;6.50;99.90;;;;;;5044021;28;20824;-53
2020/12/15 01:07:36;;;;;;;18.57;10.40;;;6.60;99.90;;;;;;5062452;28;20404;-59
2020/12/15 01:10:05;;;;;;;17.33;9.73;;;6.60;99.90;;;;;;5047693;28;20405;-55
2020/12/15 01:12:30;;;;;;;16.35;9.10;;;6.70;99.90;;;;;;5049512;28;20477;-53
2020/12/15 01:14:56;;;;;;;16.33;8.80;;;7.60;99.90;;;;;;5047389;28;20951;-53
2020/12/15 01:17:21;;;;;;;16.50;8.80;;;6.70;99.90;;;;;;5048617;28;20490;-53
2020/12/15 01:19:47;;;;;;;15.90;9.38;;;6.70;99.90;;;;;;5047887;28;20863;-57
2020/12/15 01:22:13;;;;;;;16.57;9.00;;;6.70;99.90;;;;;;5048963;28;20859;-54
2020/12/15 01:24:39;;;;;;;15.85;9.45;;;6.70;99.90;;;;;;5048683;28;20445;-59
2020/12/15 01:27:05;;;;;;;15.07;9.50;;;6.70;99.90;;;;;;5049350;28;20385;-54
2020/12/15 01:29:31;;;;;;;17.80;9.43;;;6.70;99.90;;;;;;5048327;28;20397;-54
2020/12/15 01:32:00;;;;;;;15.80;9.50;;;6.70;99.90;;;;;;5048429;28;20911;-57
2020/12/15 01:34:26;;;;;;;17.50;9.35;;;6.60;99.90;;;;;;5050125;28;20437;-54
2020/12/15 01:36:52;;;;;;;20.27;10.40;;;6.70;99.90;;;;;;5045945;28;20421;-54
2020/12/15 01:39:17;;;;;;;16.70;11.10;;;6.80;99.90;;;;;;5049570;28;20388;-54
2020/12/15 01:41:43;;;;;;;18.85;11.40;;;6.90;99.90;;;;;;5042457;28;20381;-54
2020/12/15 01:44:09;;;;;;;16.17;8.70;;;6.80;99.90;;;;;;5045068;28;20484;-53
2020/12/15 01:46:34;;;;;;;14.88;9.00;;;6.70;99.90;;;;;;5048430;28;20499;-54
2020/12/15 01:49:00;;;;;;;16.58;9.05;;;6.70;99.90;;;;;;5047277;28;20894;-53
2020/12/15 01:51:28;;;;;;;16.05;9.30;;;6.80;99.90;;;;;;5047701;28;20398;-54
2020/12/15 01:53:54;;;;;;;17.90;9.60;;;6.80;99.90;;;;;;5048226;28;20401;-54
2020/12/15 01:56:21;;;;;;;18.92;11.63;;;6.80;99.90;;;;;;5049050;28;20448;-53
2020/12/15 01:58:53;;;;;;;18.50;10.50;;;6.80;99.90;;;;;;5048978;28;20382;-55
2020/12/15 02:01:19;;;;;;;16.95;10.27;;;6.90;99.90;;;;;;5047944;28;20436;-53
2020/12/15 02:03:44;;;;;;;16.23;10.10;;;7.00;99.90;;;;;;5048382;28;20405;-53
2020/12/15 02:06:11;;;;;;;17.57;10.17;;;7.00;99.90;;;;;;5049419;28;20385;-53
2020/12/15 02:08:37;;;;;;;16.02;9.57;;;6.90;99.90;;;;;;5047524;28;20397;-60
2020/12/15 02:11:05;;;;;;;20.25;10.38;;;6.80;99.90;;;;;;5048868;28;20382;-55
2020/12/15 02:13:32;;;;;;;15.50;9.63;;;6.70;99.90;;;;;;5081260;28;20408;-53
2020/12/15 02:15:57;;;;;;;16.60;10.35;;;6.70;99.90;;;;;;5046456;28;20444;-53
2020/12/15 02:18:23;;;;;;;19.40;10.38;;;6.80;99.90;;;;;;5045163;28;20389;-53
2020/12/15 02:20:48;;;;;;;20.47;10.80;;;6.80;99.90;;;;;;5041014;28;20393;-56
2020/12/15 02:23:14;;;;;;;15.23;9.32;;;6.90;99.90;;;;;;5047642;28;20747;-55
2020/12/15 02:25:40;;;;;;;17.40;9.90;;;6.90;99.90;;;;;;5047885;28;20425;-59
2020/12/15 02:28:05;;;;;;;18.73;10.20;;;6.90;99.90;;;;;;5049078;28;20697;-53
2020/12/15 02:30:31;;;;;;;15.83;9.53;;;6.90;99.90;;;;;;5045980;28;20413;-53
2020/12/15 02:32:57;;;;;;;17.02;9.55;;;6.90;99.90;;;;;;5048154;28;20394;-53
2020/12/15 02:35:22;;;;;;;17.30;10.37;;;7.00;99.90;;;;;;5046759;28;20417;-54
2020/12/15 02:37:48;;;;;;;16.92;9.40;;;7.00;99.90;;;;;;5047556;28;20390;-55
2020/12/15 02:40:14;;;;;;;18.23;10.03;;;7.00;99.90;;;;;;5049418;28;20925;-54
2020/12/15 02:42:39;;;;;;;16.00;9.38;;;7.00;99.90;;;;;;5046804;28;20525;-60
2020/12/15 02:45:05;;;;;;;16.10;9.80;;;7.00;99.90;;;;;;5048756;28;20757;-54
2020/12/15 02:47:30;;;;;;;19.07;10.53;;;7.10;99.90;;;;;;5046967;28;20838;-54
2020/12/15 02:49:56;;;;;;;17.20;9.80;;;7.10;99.90;;;;;;5048234;28;20388;-54
2020/12/15 02:52:22;;;;;;;18.30;9.87;;;7.20;99.90;;;;;;5048378;28;20403;-55
2020/12/15 02:54:48;;;;;;;17.95;10.20;;;7.20;99.90;;;;;;5042911;28;20923;-53
2020/12/15 02:57:15;;;;;;;20.30;10.77;;;7.20;99.90;;;;;;5036466;28;20437;-53
2020/12/15 02:59:41;;;;;;;17.17;9.77;;;7.00;99.90;;;;;;5049468;28;20420;-59
2020/12/15 03:02:06;;;;;;;16.97;8.97;;;7.00;99.90;;;;;;5050444;28;20409;-55
2020/12/15 03:04:32;;;;;;;16.85;9.45;;;7.00;99.90;;;;;;5052157;28;20385;-53
2020/12/15 03:06:57;;;;;;;14.20;8.90;;;7.30;99.90;;;;;;5048656;28;20433;-53
2020/12/15 03:09:23;;;;;;;15.85;8.50;;;7.00;99.90;;;;;;5051436;28;20818;-54
2020/12/15 03:11:48;;;;;;;17.87;9.77;;;7.00;99.90;;;;;;5050734;28;20397;-53
2020/12/15 03:14:14;;;;;;;15.43;8.47;;;7.00;99.90;;;;;;5050726;28;20510;-53
2020/12/15 03:16:40;;;;;;;14.40;7.63;;;7.10;99.90;;;;;;5051466;28;20409;-60
2020/12/15 03:19:05;;;;;;;14.43;8.70;;;7.10;99.90;;;;;;5050127;28;20475;-53
2020/12/15 03:21:35;;;;;;;16.15;8.88;;;7.10;99.90;;;;;;5051349;28;20770;-54
2020/12/15 03:24:02;;;;;;;18.10;9.63;;;7.10;99.90;;;;;;5049488;28;21039;-54
2020/12/15 03:26:28;;;;;;;14.48;8.50;;;7.10;99.90;;;;;;5051232;28;20431;-53
2020/12/15 03:28:54;;;;;;;15.80;9.30;;;7.00;99.90;;;;;;5051300;28;20848;-53
2020/12/15 03:31:19;;;;;;;15.02;8.25;;;7.20;99.90;;;;;;5049722;28;20754;-53
2020/12/15 03:33:46;;;;;;;16.97;8.90;;;6.80;99.90;;;;;;5043821;28;20821;-53
2020/12/15 03:36:12;;;;;;;15.60;8.70;;;6.50;99.90;;;;;;5050508;28;20444;-53
2020/12/15 03:38:38;;;;;;;14.95;8.57;;;6.30;99.90;;;;;;5051810;28;20843;-53
2020/12/15 03:41:04;;;;;;;17.20;8.68;;;6.40;99.90;;;;;;5049290;28;20389;-53
2020/12/15 03:43:29;;;;;;;14.97;9.07;;;6.60;99.90;;;;;;5050283;28;20439;-53
2020/12/15 03:45:55;;;;;;;17.45;9.63;;;6.80;99.90;;;;;;5048630;28;20951;-53
2020/12/15 03:48:20;;;;;;;18.43;10.57;;;6.50;99.90;;;;;;5051726;28;20404;-54
2020/12/15 03:50:46;;;;;;;14.73;8.90;;;6.50;99.90;;;;;;5049472;28;20389;-53
2020/12/15 03:53:12;;;;;;;14.87;8.87;;;6.60;99.90;;;;;;5051176;28;20819;-54
2020/12/15 03:55:38;;;;;;;19.70;12.43;;;7.80;99.90;;;;;;5050952;28;20468;-54
2020/12/15 03:58:03;;;;;;;16.00;9.90;;;6.70;99.90;;;;;;5049285;28;20405;-53
2020/12/15 04:00:29;;;;;;;18.63;9.23;;;6.80;99.90;;;;;;5051410;28;20378;-53
2020/12/15 04:02:55;;;;;;;14.90;8.67;;;6.90;99.90;;;;;;5048992;28;20465;-54
2020/12/15 04:05:20;;;;;;;15.07;8.20;;;7.00;99.90;;;;;;5050504;28;20484;-56
2020/12/15 04:07:46;;;;;;;13.13;7.80;;;6.50;99.90;;;;;;5046614;28;20504;-53
2020/12/15 04:10:12;;;;;;;12.77;7.90;;;6.50;99.90;;;;;;5050374;28;20385;-54
2020/12/15 04:12:37;;;;;;;14.73;8.57;;;6.40;99.90;;;;;;5047275;28;20403;-54
2020/12/15 04:15:05;;;;;;;11.80;7.75;;;6.30;99.90;;;;;;5049763;28;20416;-53
2020/12/15 04:17:30;;;;;;;13.55;7.45;;;6.30;99.90;;;;;;5049335;28;20436;-53
2020/12/15 04:19:56;;;;;;;13.10;7.90;;;6.40;99.90;;;;;;5050472;28;20417;-54
2020/12/15 04:22:22;;;;;;;17.35;8.70;;;6.50;99.90;;;;;;5049284;28;21195;-53
2020/12/15 04:24:48;;;;;;;14.95;8.57;;;6.60;99.90;;;;;;5050188;28;20911;-54
2020/12/15 04:27:13;;;;;;;15.65;8.40;;;6.60;99.90;;;;;;5049394;28;20799;-54
2020/12/15 04:29:39;;;;;;;12.93;7.33;;;6.70;99.90;;;;;;5050434;28;20382;-54
2020/12/15 04:32:05;;;;;;;14.45;8.73;;;6.70;99.90;;;;;;5050102;28;20844;-54
2020/12/15 04:34:30;;;;;;;15.90;8.20;;;6.70;99.90;;;;;;5048788;28;20402;-54
2020/12/15 04:36:57;;;;;;;13.02;8.02;;;6.80;99.90;;;;;;5048699;28;20737;-54
2020/12/15 04:39:24;;;;;;;14.65;8.00;;;6.80;99.90;;;;;;5048892;28;20420;-54
2020/12/15 04:41:49;;;;;;;13.90;8.50;;;6.70;99.90;;;;;;5049773;28;20866;-56
2020/12/15 04:44:15;;;;;;;15.18;8.85;;;6.80;99.90;;;;;;5048315;28;20389;-53
2020/12/15 04:46:53;;;;;;;16.95;9.38;;;6.70;99.90;;;;;;5049968;28;20389;-55
2020/12/15 04:49:23;;;;;;;16.00;9.32;;;6.60;99.90;;;;;;5048095;28;20401;-53
2020/12/15 04:52:04;;;;;;;16.60;10.10;;;6.60;99.90;;;;;;5043422;28;20774;-53
2020/12/15 04:54:32;;;;;;;16.10;9.67;;;6.60;99.90;;;;;;5042374;28;20925;-55
2020/12/15 04:57:00;;;;;;;17.10;10.20;;;6.70;99.90;;;;;;5047186;28;20767;-53
2020/12/15 04:59:29;;;;;;;15.35;9.30;;;6.70;99.90;;;;;;5050307;28;20381;-53
2020/12/15 05:01:57;;;;;;;17.58;10.13;;;6.80;99.90;;;;;;5047213;28;20815;-54
2020/12/15 05:04:27;;;;;;;15.98;9.57;;;6.90;99.90;;;;;;5049815;28;20470;-53
2020/12/15 05:06:54;;;;;;;20.38;12.70;;;6.90;99.90;;;;;;5049479;28;20418;-54
2020/12/15 05:09:30;;;;;;;16.73;10.90;;;6.90;99.90;;;;;;5058517;28;20513;-53
2020/12/15 05:11:56;;;;;;;18.50;10.35;;;6.90;99.90;;;;;;5047633;28;20540;-53
2020/12/15 05:14:25;;;;;;;19.27;10.48;;;6.90;99.90;;;;;;5044785;28;20377;-54
2020/12/15 05:16:51;;;;;;;17.30;10.48;;;6.90;99.90;;;;;;5048093;28;20441;-56
2020/12/15 05:19:17;;;;;;;16.90;9.80;;;7.00;99.90;;;;;;5049761;28;20404;-53
2020/12/15 05:21:53;;;;;;;16.63;9.95;;;7.10;99.90;;;;;;5054365;28;20413;-59
2020/12/15 05:24:22;;;;;;;17.08;9.60;;;6.80;99.90;;;;;;5048406;28;20385;-53
2020/12/15 05:26:48;;;;;;;20.80;12.10;;;6.80;99.90;;;;;;5037318;28;20393;-54
2020/12/15 05:29:17;;;;;;;18.65;12.63;;;6.80;99.90;;;;;;5049162;28;20420;-53
2020/12/15 05:31:43;;;;;;;14.65;9.82;;;6.70;99.90;;;;;;5045126;28;20401;-60
2020/12/15 05:34:15;;;;;;;16.60;9.60;;;6.60;99.90;;;;;;5041821;28;20378;-53
2020/12/15 05:36:51;;;;;;;16.50;9.75;;;6.60;99.90;;;;;;5048518;28;20515;-53
2020/12/15 05:39:16;;;;;;;14.38;8.95;;;6.60;99.90;;;;;;5058327;28;20454;-53
2020/12/15 05:41:42;;;;;;;14.07;9.30;;;6.60;99.90;;;;;;5052612;28;20391;-59
2020/12/15 05:44:09;;;;;;;17.88;9.88;;;6.60;99.90;;;;;;5057937;28;20453;-53
2020/12/15 05:46:45;;;;;;;22.08;9.45;;;6.60;99.90;;;;;;5056706;28;20480;-54
2020/12/15 05:49:11;;;;;;;18.33;9.65;;;6.60;99.90;;;;;;5045568;28;20909;-53
2020/12/15 05:51:44;;;;;;;16.58;10.20;;;6.60;99.90;;;;;;5040913;28;20428;-60
2020/12/15 05:54:12;;;;;;;14.23;9.50;;;6.70;99.90;;;;;;5036467;28;20459;-59
2020/12/15 05:56:38;;;;;;;18.30;10.20;;;6.70;99.90;;;;;;5038422;28;20486;-60
2020/12/15 05:59:18;;;;;;;14.60;9.00;;;6.80;99.90;;;;;;5049664;28;20397;-54
2020/12/15 06:01:48;;;;;;;15.98;8.98;;;6.80;99.90;;;;;;5057359;28;20420;-55
2020/12/15 06:04:14;;;;;;;14.30;8.30;;;6.80;99.90;;;;;;5053573;28;20377;-53
2020/12/15 06:06:44;;;;;;;15.40;8.65;;;6.70;99.90;;;;;;5051195;28;20455;-53
2020/12/15 06:09:18;;;;;;;15.13;7.97;;;6.70;99.90;;;;;;5048814;28;20447;-54
2020/12/15 06:11:47;;;;;;;14.73;8.20;;;6.70;99.90;;;;;;5049006;28;20424;-59
2020/12/15 06:14:14;;;;;;;14.40;7.95;;;6.80;99.90;;;;;;5047099;28;20401;-54
2020/12/15 06:16:41;;;;;;;14.63;9.27;;;6.90;99.90;;;;;;5047056;28;20417;-53
2020/12/15 06:19:08;;;;;;;14.70;8.82;;;6.90;99.90;;;;;;5046426;28;20416;-54
2020/12/15 06:21:36;;;;;;;15.55;8.15;;;7.00;99.90;;;;;;5040914;28;20402;-53
2020/12/15 06:24:04;;;;;;;14.70;8.10;;;7.00;99.90;;;;;;5048153;28;20926;-54
2020/12/15 06:26:32;;;;;;;15.15;8.27;;;7.10;99.90;;;;;;5041714;28;20382;-54
2020/12/15 06:29:06;;;;;;;12.38;7.40;;;7.00;99.90;;;;;;5046578;28;20389;-55
2020/12/15 06:31:34;;;;;;;12.60;8.50;;;6.90;99.90;;;;;;5054656;28;20474;-54
2020/12/15 06:34:02;;;;;;;11.85;7.35;;;7.10;99.90;;;;;;5049629;28;20428;-54
2020/12/15 06:36:32;;;;;;;12.82;8.10;;;7.10;99.90;;;;;;5051012;28;20429;-52
2020/12/15 06:39:12;;;;;;;13.60;8.07;;;7.00;99.90;;;;;;5051733;28;20381;-54
2020/12/15 06:41:38;;;;;;;11.73;7.50;;;7.00;99.90;;;;;;5050592;28;20397;-53
2020/12/15 06:44:05;;;;;;;14.95;8.00;;;7.00;99.90;;;;;;5049737;28;20474;-54
2020/12/15 06:46:31;;;;;;;12.73;8.13;;;7.10;99.90;;;;;;5051309;28;20930;-57
2020/12/15 06:48:57;;;;;;;13.65;7.53;;;7.10;99.90;;;;;;5050511;28;20472;-55
2020/12/15 06:51:33;;;;;;;13.10;8.10;;;7.20;99.90;;;;;;5042526;28;20408;-53
2020/12/15 06:54:06;;;;;;;13.18;7.40;;;7.20;99.90;;;;;;5044897;28;20452;-53
2020/12/15 06:56:32;;;;;;;11.98;7.03;;;7.30;99.90;;;;;;5039303;28;20786;-55
2020/12/15 06:59:06;;;;;;;10.98;7.20;;;7.20;99.90;;;;;;5045486;28;20413;-55
2020/12/15 07:01:33;;;;;;;14.85;7.90;;;7.20;99.90;;;;;;5040338;28;20397;-54
2020/12/15 07:04:03;;;;;;;13.13;7.43;;;7.20;99.90;;;;;;5036341;28;20482;-54
2020/12/15 07:06:29;;;;;;;13.77;8.00;;;7.10;99.90;;;;;;5036138;28;20470;-54
2020/12/15 07:09:08;;;;;;;13.73;7.47;;;7.20;99.90;;;;;;5036699;28;20876;-55
2020/12/15 07:11:34;;;;;;;12.00;7.73;;;7.20;99.90;;;;;;5050105;28;20397;-53
2020/12/15 07:14:03;;;;;;;13.13;7.68;;;7.10;99.90;;;;;;5040938;28;20488;-56
2020/12/15 07:16:29;;;;;;;15.23;7.20;;;7.10;99.90;;;;;;5040366;28;21001;-55
2020/12/15 07:18:55;;;;;;;13.32;7.72;;;7.20;99.90;;;;;;5044260;28;20394;-54
2020/12/15 07:21:23;;;;;;;12.57;7.55;;;7.20;99.90;;;;;;5041155;28;20481;-57
2020/12/15 07:23:52;;;;;;;14.50;7.55;;;7.10;99.90;;;;;;5041988;28;20962;-55
2020/12/15 07:26:19;;;;;;;11.85;7.50;;;7.10;99.90;;;;;;5049404;28;20456;-53
2020/12/15 07:28:48;;;;;;;11.90;7.22;;;7.00;99.90;;;;;;5049514;28;20386;-60
2020/12/15 07:31:25;;;;;;;16.45;9.30;;;7.00;99.90;;;;;;5042836;28;20416;-53
2020/12/15 07:34:03;;;;;;;15.48;8.15;;;6.90;99.90;;;;;;5045183;28;20646;-51
2020/12/15 07:36:29;;;;;;;17.27;9.25;;;6.90;99.90;;;;;;5076778;28;20936;-54
2020/12/15 07:38:56;;;;;;;16.50;8.30;;;6.80;99.90;;;;;;5034664;28;20427;-54
2020/12/15 07:41:21;;;;;;;13.00;8.15;;;6.90;99.90;;;;;;5042398;28;20402;-53
2020/12/15 07:43:56;;;;;;;14.02;8.57;;;6.90;99.90;;;;;;5038567;28;20380;-54
2020/12/15 07:46:25;;;;;;;14.90;8.13;;;6.90;99.90;;;;;;5044681;28;20421;-54
2020/12/15 07:48:53;;;;;;;15.30;8.45;;;7.00;99.90;;;;;;5039000;28;20425;-53
2020/12/15 07:51:19;;;;;;;14.32;8.07;;;6.90;99.90;;;;;;5042458;28;20413;-54
2020/12/15 07:53:52;;;;;;;16.95;8.73;;;7.00;99.90;;;;;;5046965;28;20396;-59
2020/12/15 07:56:18;;;;;;;17.25;8.40;;;7.10;99.90;;;;;;5042768;28;20500;-53
2020/12/15 07:58:49;;;;;;;21.00;8.80;;;7.10;99.90;;;;;;5047116;28;20393;-60
2020/12/15 08:01:23;;;;;;;16.23;9.18;;;7.10;99.90;;;;;;5047016;28;20401;-53
2020/12/15 08:04:09;;;;;;;14.05;8.73;;;7.10;99.90;;;;;;5046061;28;20409;-53
2020/12/15 08:06:44;;;;;;;15.50;8.32;;;7.00;99.90;;;;;;5044320;28;20402;-55
2020/12/15 08:09:16;;;;;;;19.25;9.15;;;7.00;99.90;;;;;;5041893;28;20388;-54
2020/12/15 08:11:49;;;;;;;16.17;9.30;;;7.20;99.90;;;;;;5034691;28;20457;-59
2020/12/15 08:14:16;;;;;;;17.67;9.80;;;7.20;99.90;;;;;;5041087;28;20386;-54
2020/12/15 08:16:43;;;;;;;18.13;9.02;;;7.20;99.90;;;;;;5040499;28;20488;-60
2020/12/15 08:19:10;;;;;;;16.58;8.60;;;7.20;99.90;;;;;;5045375;28;20443;-54
2020/12/15 08:21:45;;;;;;;17.13;10.13;;;7.30;99.90;;;;;;5035535;28;20475;-54
2020/12/15 08:24:13;;;;;;;17.67;9.00;;;7.30;99.90;;;;;;5040238;28;20417;-60
2020/12/15 08:26:40;;;;;;;14.45;8.65;;;7.20;99.90;;;;;;5043283;28;20871;-54
2020/12/15 08:29:10;;;;;;;16.63;8.70;;;7.30;99.90;;;;;;5039121;28;20397;-54
2020/12/15 08:31:40;;;;;;;16.58;9.50;;;7.20;99.90;;;;;;5037817;28;20429;-55
2020/12/15 08:34:10;;;;;;;14.10;8.20;;;7.30;99.90;;;;;;5041540;28;21069;-54
2020/12/15 08:36:42;;;;;;;14.32;8.55;;;7.30;99.90;;;;;;5045294;28;20495;-58
2020/12/15 08:39:11;;;;;;;13.88;8.57;;;7.30;99.90;;;;;;5034094;28;20383;-53
2020/12/15 08:41:45;;;;;;;13.45;7.78;;;7.30;99.90;;;;;;5038155;28;20443;-52
2020/12/15 08:44:13;;;;;;;13.82;8.20;;;7.40;99.90;;;;;;5041941;28;20499;-52
2020/12/15 08:46:40;;;;;;;13.95;8.20;;;7.40;99.90;;;;;;5042556;28;20408;-53
2020/12/15 08:49:13;;;;;;;14.68;8.20;;;7.50;99.90;;;;;;5041314;28;21010;-53
2020/12/15 08:51:42;;;;;;;13.80;8.50;;;7.60;99.90;;;;;;5038888;28;20753;-53
2020/12/15 08:54:08;;;;;;;13.20;8.20;;;7.50;99.90;;;;;;5034662;28;20868;-52
2020/12/15 08:56:34;;;;;;;13.48;7.80;;;7.50;99.90;;;;;;5034270;28;20540;-54
2020/12/15 08:59:20;;;;;;;12.82;7.88;;;7.50;99.90;;;;;;5036589;28;20409;-57
2020/12/15 09:01:47;;;;;;;17.17;8.53;;;7.60;99.90;;;;;;5037879;28;20909;-56
2020/12/15 09:04:25;;;;;;;14.55;8.73;;;7.70;99.90;;;;;;5042335;28;20524;-54
2020/12/15 09:06:51;;;;;;;14.33;8.43;;;7.70;99.90;;;;;;5037355;28;20413;-54
2020/12/15 09:09:26;;;;;;;15.50;8.77;;;7.70;99.90;;;;;;5042211;28;20502;-52
2020/12/15 09:11:56;;;;;;;16.63;9.40;;;7.70;99.90;;;;;;5042518;28;20401;-55
2020/12/15 09:14:23;;;;;;;12.95;8.00;;;7.60;99.90;;;;;;5042595;28;20526;-53
2020/12/15 09:16:48;;;;;;;14.57;8.10;;;7.60;99.90;;;;;;5038963;28;20413;-52
2020/12/15 09:19:21;;;;;;;14.53;8.20;;;7.60;99.90;;;;;;5043762;28;20422;-57
2020/12/15 09:22:01;;;;;;;15.43;8.20;;;7.60;99.90;;;;;;5034259;28;20464;-54
2020/12/15 09:24:28;;;;;;;16.20;8.68;;;7.70;99.90;;;;;;5039455;28;21182;-56
2020/12/15 09:26:55;;;;;;;16.15;8.00;;;7.60;99.90;;;;;;5039839;28;20409;-56
2020/12/15 09:29:21;;;;;;;14.27;7.90;;;7.60;99.90;;;;;;5041739;28;20396;-59
2020/12/15 09:31:59;;;;;;;15.67;8.47;;;7.00;99.90;;;;;;5033928;28;20758;-55
2020/12/15 09:34:25;;;;;;;15.10;8.10;;;7.60;99.90;;;;;;5037251;28;20399;-55
2020/12/15 09:36:56;;;;;;;17.20;9.10;;;7.60;99.90;;;;;;5039864;28;20419;-57
2020/12/15 09:39:29;;;;;;;16.13;8.45;;;7.50;99.90;;;;;;5037440;28;20420;-56
2020/12/15 09:42:03;;;;;;;13.20;7.80;;;7.60;99.90;;;;;;5039519;28;20413;-59
2020/12/15 09:44:30;;;;;;;15.20;8.33;;;7.60;99.90;;;;;;5041233;28;20389;-54
2020/12/15 09:46:56;;;;;;;14.43;8.52;;;7.60;99.90;;;;;;5036608;28;20405;-54
2020/12/15 09:49:22;;;;;;;14.65;8.60;;;7.60;99.90;;;;;;5041637;28;20468;-54
2020/12/15 09:51:49;;;;;;;15.82;8.50;;;7.70;99.90;;;;;;5036570;28;20433;-55
2020/12/15 09:54:15;;;;;;;16.92;8.20;;;7.70;99.90;;;;;;5042812;28;20398;-53
2020/12/15 09:56:44;;;;;;;15.90;8.32;;;7.80;99.90;;;;;;5040193;28;20417;-52
2020/12/15 09:59:16;;;;;;;15.77;8.10;;;7.80;99.90;;;;;;5046334;28;20389;-58
2020/12/15 10:01:43;;;;;;;14.13;8.18;;;7.80;99.90;;;;;;5042897;28;20502;-54
2020/12/15 10:04:09;;;;;;;13.68;7.63;;;7.80;99.90;;;;;;5041346;28;20375;-54
2020/12/15 10:06:36;;;;;;;15.18;8.20;;;7.90;99.90;;;;;;5042256;28;20404;-54
2020/12/15 10:09:04;;;;;;;14.73;8.93;;;7.90;99.90;;;;;;5046690;28;20658;-60
2020/12/15 10:11:30;;;;;;;14.20;8.15;;;7.90;99.90;;;;;;5049937;28;20383;-57
2020/12/15 10:13:56;;;;;;;14.97;7.70;;;8.00;99.90;;;;;;5048459;28;20398;-54
2020/12/15 10:16:22;;;;;;;16.88;8.90;;;7.90;99.90;;;;;;5049791;28;20405;-56
2020/12/15 10:18:48;;;;;;;15.20;8.02;;;7.90;99.90;;;;;;5048207;28;20404;-56
2020/12/15 10:21:18;;;;;;;15.38;8.38;;;7.80;99.90;;;;;;5041455;28;20451;-54
2020/12/15 10:23:47;;;;;;;15.45;7.53;;;7.80;99.90;;;;;;5040649;28;20822;-55
2020/12/15 10:26:19;;;;;;;13.48;7.78;;;7.80;99.90;;;;;;5048480;28;20404;-57
2020/12/15 10:28:45;;;;;;;12.93;7.53;;;7.90;99.90;;;;;;5045129;28;20433;-55
2020/12/15 10:31:11;;;;;;;15.43;8.40;;;8.10;99.90;;;;;;5065046;28;20693;-54
2020/12/15 10:33:37;;;;;;;17.60;7.53;;;8.10;99.90;;;;;;5045827;28;20395;-54
2020/12/15 10:36:04;;;;;;;14.63;7.70;;;8.30;99.90;;;;;;5045367;28;20421;-54
2020/12/15 10:38:32;;;;;;;13.57;7.85;;;8.30;99.90;;;;;;5049145;28;20397;-54
2020/12/15 10:40:58;;;;;;;15.90;8.20;;;8.30;99.90;;;;;;5039654;28;20399;-54
2020/12/15 10:43:25;;;;;;;13.20;7.50;;;8.50;99.90;;;;;;5046396;28;20946;-55
2020/12/15 10:45:51;;;;;;;13.57;7.50;;;8.40;99.90;;;;;;5037406;28;20431;-54
2020/12/15 10:48:17;;;;;;;14.38;7.40;;;8.50;99.90;;;;;;5045580;28;20433;-57
2020/12/15 10:50:43;;;;;;;12.95;7.47;;;8.50;99.90;;;;;;5050832;28;20386;-60
2020/12/15 10:53:10;;;;;;;14.60;7.50;;;8.60;99.90;;;;;;5048152;28;20405;-54
2020/12/15 10:55:37;;;;;;;12.35;7.10;;;8.60;99.90;;;;;;5042447;28;20775;-54
2020/12/15 10:58:07;;;;;;;13.68;7.57;;;8.60;99.90;;;;;;5044691;28;20401;-54
2020/12/15 11:00:33;;;;;;;15.00;7.63;;;8.80;99.90;;;;;;5050186;28;20754;-54
2020/12/15 11:02:59;;;;;;;13.52;7.63;;;8.90;99.90;;;;;;5043520;28;20907;-55
2020/12/15 11:05:26;;;;;;;14.70;8.15;;;8.90;99.90;;;;;;5042179;28;20930;-58
2020/12/15 11:07:52;;;;;;;13.02;8.18;;;8.90;99.90;;;;;;5044428;28;20445;-54
2020/12/15 11:10:18;;;;;;;17.95;7.82;;;8.80;99.90;;;;;;5037354;28;20397;-55
2020/12/15 11:12:44;;;;;;;14.45;8.23;;;8.80;99.90;;;;;;5047155;28;20438;-61
2020/12/15 11:15:10;;;;;;;13.85;8.38;;;8.90;99.90;;;;;;5043639;28;20489;-55
2020/12/15 11:17:36;;;;;;;13.43;8.30;;;9.00;99.90;;;;;;5043016;28;20488;-55
2020/12/15 11:20:01;;;;;;;16.07;7.77;;;8.90;99.90;;;;;;5038818;28;20965;-55
2020/12/15 11:22:27;;;;;;;12.43;7.70;;;8.80;99.90;;;;;;5043924;28;20402;-55
2020/12/15 11:24:53;;;;;;;14.97;8.10;;;8.80;99.90;;;;;;5044451;28;20461;-54
2020/12/15 11:27:19;;;;;;;14.35;7.63;;;8.90;99.90;;;;;;5040397;28;20409;-55
2020/12/15 11:29:44;;;;;;;12.10;7.25;;;8.90;99.90;;;;;;5048084;28;20382;-61
2020/12/15 11:32:10;;;;;;;14.73;8.40;;;8.90;99.90;;;;;;5042425;28;20397;-57
2020/12/15 11:34:36;;;;;;;15.40;8.77;;;8.90;99.90;;;;;;5047891;28;20397;-54
2020/12/15 11:37:02;;;;;;;13.88;8.30;;;9.00;99.90;;;;;;5043966;28;20474;-54
2020/12/15 11:39:29;;;;;;;16.85;8.77;;;9.00;99.90;;;;;;5040761;28;21270;-54
2020/12/15 11:41:55;;;;;;;19.03;8.70;;;9.00;99.90;;;;;;5032900;28;20445;-54
2020/12/15 11:44:21;;;;;;;20.05;10.07;;;9.10;99.90;;;;;;5032449;28;20788;-54
2020/12/15 11:46:47;;;;;;;18.05;14.77;;;9.20;99.90;;;;;;5037562;28;20407;-61
2020/12/15 11:49:13;;;;;;;15.60;8.55;;;9.20;99.90;;;;;;5039056;28;20491;-57
2020/12/15 11:51:39;;;;;;;21.38;10.10;;;9.30;99.90;;;;;;5052923;28;20741;-54
2020/12/15 11:54:04;;;;;;;15.32;9.15;;;9.50;99.90;;;;;;5047386;28;20523;-55
2020/12/15 11:56:30;;;;;;;18.83;9.37;;;9.60;99.90;;;;;;5041012;28;20837;-54
2020/12/15 11:58:56;;;;;;;16.92;9.00;;;9.70;99.90;;;;;;5046757;28;20492;-55
2020/12/15 12:01:22;;;;;;;17.15;10.10;;;9.60;99.90;;;;;;5045050;28;20874;-54
2020/12/15 12:03:47;;;;;;;14.97;9.53;;;9.50;99.90;;;;;;5046949;28;20390;-56
2020/12/15 12:06:14;;;;;;;20.40;9.35;;;9.50;99.90;;;;;;5046046;28;20399;-54
2020/12/15 12:08:39;;;;;;;17.77;9.35;;;9.30;99.90;;;;;;5041281;28;20488;-55
2020/12/15 12:11:05;;;;;;;21.27;12.60;;;9.30;99.90;;;;;;5036463;28;20470;-55
2020/12/15 12:13:31;;;;;;;17.53;11.37;;;9.40;99.90;;;;;;5042795;28;20484;-55
2020/12/15 12:16:01;;;;;;;29.88;14.23;;;9.40;99.90;;;;;;5042372;28;20461;-54
2020/12/15 12:18:28;;;;;;;32.05;15.60;;;9.50;99.90;;;;;;5046068;28;20386;-54
2020/12/15 12:20:53;;;;;;;25.17;14.07;;;9.70;99.90;;;;;;5044980;28;20495;-55
2020/12/15 12:23:19;;;;;;;28.08;15.82;;;9.90;99.90;;;;;;5043509;28;20488;-54
2020/12/15 12:25:45;;;;;;;32.93;17.93;;;9.90;99.90;;;;;;5037846;28;20401;-60
2020/12/15 12:28:11;;;;;;;27.92;14.82;;;9.90;99.90;;;;;;5039276;28;20496;-55
2020/12/15 12:30:37;;;;;;;21.70;12.80;;;10.10;99.90;;;;;;5036063;28;20912;-54
2020/12/15 12:33:03;;;;;;;21.38;12.65;;;10.10;99.90;;;;;;5044165;28;20434;-54
2020/12/15 12:35:28;;;;;;;18.97;10.70;;;10.00;99.90;;;;;;5043099;28;20420;-56
2020/12/15 12:37:54;;;;;;;19.80;11.32;;;9.90;99.90;;;;;;5036672;28;20565;-57
2020/12/15 12:40:20;;;;;;;21.42;11.60;;;9.90;99.90;;;;;;5046866;28;20876;-54
2020/12/15 12:42:48;;;;;;;21.93;12.20;;;9.90;99.90;;;;;;5042639;28;20495;-61
2020/12/15 12:45:14;;;;;;;23.10;11.90;;;10.00;99.90;;;;;;5044599;28;20859;-54
2020/12/15 12:47:42;;;;;;;21.23;12.57;;;10.20;99.90;;;;;;5041260;28;20462;-54